Time;durP1;ratioP1;P1;durP2;ratioP2;P2;SDS_P1;SDS_P2;PMS_P1;PMS_P2;Temp;Humidity;BMP_temperature;BMP_pressure;BME280_temperature;BME280_humidity;BME280_pressure;Samples;Min_cycle;Max_cycle;Signal;HPM_P1;HPM_P2
2022/08/02 00:01:08;;;;;;;6.20;2.95;;;15.00;99.90;;;;;;5030521;28;20406;-77
2022/08/02 00:03:52;;;;;;;5.60;2.77;;;14.90;99.90;;;;;;5018871;28;20418;-77
2022/08/02 00:06:37;;;;;;;6.17;2.93;;;14.90;99.90;;;;;;5026313;28;20441;-76
2022/08/02 00:09:21;;;;;;;4.80;2.67;;;14.80;99.90;;;;;;5022315;28;20429;-77
2022/08/02 00:12:07;;;;;;;8.25;2.80;;;14.80;99.90;;;;;;5022530;28;20414;-77
2022/08/02 00:14:53;;;;;;;6.35;3.13;;;14.80;99.90;;;;;;5026950;28;20505;-77
2022/08/02 00:17:38;;;;;;;5.90;2.70;;;14.80;99.90;;;;;;5024673;28;20414;-77
2022/08/02 00:20:22;;;;;;;7.80;3.08;;;14.80;99.90;;;;;;5023793;28;20465;-77
2022/08/02 00:23:06;;;;;;;6.03;2.83;;;14.80;99.90;;;;;;5020243;28;21443;-77
2022/08/02 00:25:50;;;;;;;8.00;2.90;;;14.80;99.90;;;;;;5022082;28;20488;-77
2022/08/02 00:28:34;;;;;;;6.68;3.47;;;14.80;99.90;;;;;;5023224;28;20453;-77
2022/08/02 00:31:18;;;;;;;5.93;2.60;;;14.70;99.90;;;;;;5023341;28;20267;-76
2022/08/02 00:34:02;;;;;;;4.67;2.73;;;14.60;99.90;;;;;;5023242;28;20195;-77
2022/08/02 00:36:47;;;;;;;6.30;3.40;;;14.60;99.90;;;;;;5021962;28;20892;-77
2022/08/02 00:39:31;;;;;;;5.00;2.70;;;14.50;99.90;;;;;;5021239;28;20250;-77
2022/08/02 00:42:16;;;;;;;7.73;3.20;;;14.40;99.90;;;;;;5024625;28;20256;-77
2022/08/02 00:45:00;;;;;;;7.28;3.30;;;14.40;99.90;;;;;;5024532;28;20454;-77
2022/08/02 00:47:45;;;;;;;9.10;2.87;;;14.30;99.90;;;;;;5023326;28;20682;-77
2022/08/02 00:50:30;;;;;;;8.57;3.22;;;14.20;99.90;;;;;;5024961;28;20430;-77
2022/08/02 00:53:14;;;;;;;3.87;2.77;;;14.20;99.90;;;;;;5023753;28;20200;-77
2022/08/02 00:55:58;;;;;;;4.80;2.60;;;14.10;99.90;;;;;;5022301;28;20269;-77
2022/08/02 00:58:42;;;;;;;6.07;3.15;;;14.00;99.90;;;;;;5020109;28;20414;-77
2022/08/02 01:01:38;;;;;;;5.63;3.22;;;13.90;99.90;;;;;;5020964;28;20422;-77
2022/08/02 01:04:23;;;;;;;4.70;2.80;;;13.90;99.90;;;;;;5020654;28;20195;-77
2022/08/02 01:07:07;;;;;;;7.82;3.60;;;13.80;99.90;;;;;;5019500;28;20821;-77
2022/08/02 01:09:51;;;;;;;6.40;3.45;;;13.90;99.90;;;;;;5020541;28;20418;-77
2022/08/02 01:12:36;;;;;;;8.77;3.58;;;13.80;99.90;;;;;;5024509;28;20406;-76
2022/08/02 01:15:22;;;;;;;4.75;2.97;;;13.80;99.90;;;;;;5020614;28;20532;-77
2022/08/02 01:18:22;;;;;;;5.13;2.80;;;13.80;99.90;;;;;;5025654;28;20199;-77
2022/08/02 01:21:07;;;;;;;4.95;3.08;;;13.80;99.90;;;;;;5016132;28;20426;-77
2022/08/02 01:24:06;;;;;;;6.03;3.00;;;13.80;99.90;;;;;;5021782;28;20502;-77
2022/08/02 01:27:19;;;;;;;5.83;2.70;;;13.80;99.90;;;;;;5019634;28;20283;-77
2022/08/02 01:30:03;;;;;;;4.90;2.97;;;13.70;99.90;;;;;;5024420;28;21056;-77
2022/08/02 01:32:54;;;;;;;6.00;3.50;;;13.70;99.90;;;;;;5020424;28;20473;-78
2022/08/02 01:35:44;;;;;;;6.00;3.15;;;13.70;99.90;;;;;;5038188;28;20457;-77
2022/08/02 01:38:34;;;;;;;6.63;2.90;;;13.70;99.90;;;;;;5023263;28;20425;-77
2022/08/02 01:41:21;;;;;;;6.10;3.03;;;13.60;99.90;;;;;;5036824;28;20425;-78
2022/08/02 01:44:07;;;;;;;5.00;3.13;;;13.60;99.90;;;;;;5021366;28;20410;-77
2022/08/02 01:46:58;;;;;;;5.83;3.27;;;13.60;99.90;;;;;;5020745;28;20422;-76
2022/08/02 01:49:46;;;;;;;6.40;3.28;;;13.60;99.90;;;;;;5020463;28;20477;-77
2022/08/02 01:52:36;;;;;;;5.70;3.10;;;13.60;99.90;;;;;;5020465;28;20576;-77
2022/08/02 01:55:27;;;;;;;6.63;3.40;;;13.60;99.90;;;;;;5023353;28;20407;-76
2022/08/02 01:58:15;;;;;;;7.77;3.30;;;13.60;99.90;;;;;;5022728;28;20422;-76
2022/08/02 02:01:01;;;;;;;7.43;3.47;;;13.60;99.90;;;;;;5018454;28;20411;-77
2022/08/02 02:03:47;;;;;;;7.05;4.03;;;13.70;99.90;;;;;;5022758;28;20405;-76
2022/08/02 02:06:32;;;;;;;8.77;4.15;;;13.70;99.90;;;;;;5022807;28;20433;-76
2022/08/02 02:09:17;;;;;;;9.63;4.25;;;13.60;99.90;;;;;;5020653;28;20427;-76
2022/08/02 02:12:02;;;;;;;9.55;4.10;;;13.60;99.90;;;;;;5019054;28;20449;-76
2022/08/02 02:14:48;;;;;;;8.52;4.57;;;13.60;99.90;;;;;;5021692;28;20405;-76
2022/08/02 02:17:33;;;;;;;10.13;4.72;;;13.60;99.90;;;;;;5023280;28;20422;-76
2022/08/02 02:20:19;;;;;;;10.87;4.50;;;13.60;99.90;;;;;;5020826;28;21102;-77
2022/08/02 02:23:03;;;;;;;10.48;4.82;;;13.60;99.90;;;;;;5020997;28;20945;-76
2022/08/02 02:25:48;;;;;;;8.43;4.60;;;13.60;99.90;;;;;;5022214;28;20553;-76
2022/08/02 02:28:35;;;;;;;7.85;4.75;;;13.60;99.90;;;;;;5021297;28;20421;-77
2022/08/02 02:31:20;;;;;;;12.75;5.28;;;13.60;99.90;;;;;;5022510;28;20545;-75
2022/08/02 02:34:10;;;;;;;11.67;5.33;;;13.60;99.90;;;;;;5019787;28;20507;-76
2022/08/02 02:36:58;;;;;;;10.25;5.32;;;13.60;99.90;;;;;;5020664;28;20402;-76
2022/08/02 02:39:44;;;;;;;9.18;4.80;;;13.60;99.90;;;;;;5021386;28;20405;-77
2022/08/02 02:42:31;;;;;;;10.50;5.10;;;13.60;99.90;;;;;;5019457;28;20432;-76
2022/08/02 02:45:17;;;;;;;9.02;5.35;;;13.60;99.90;;;;;;5020938;28;20414;-75
2022/08/02 02:48:02;;;;;;;13.15;5.85;;;13.60;99.90;;;;;;5019284;28;20437;-74
2022/08/02 02:50:47;;;;;;;11.23;5.32;;;13.60;99.90;;;;;;5018179;28;20429;-74
2022/08/02 02:53:33;;;;;;;10.95;6.05;;;13.50;99.90;;;;;;5021411;28;20461;-74
2022/08/02 02:56:19;;;;;;;11.87;5.90;;;13.50;99.90;;;;;;5022294;28;20406;-75
2022/08/02 02:59:05;;;;;;;10.38;5.70;;;13.50;99.90;;;;;;5023506;28;20454;-74
2022/08/02 03:01:51;;;;;;;11.48;6.05;;;13.50;99.90;;;;;;5020375;28;20486;-75
2022/08/02 03:04:38;;;;;;;12.43;6.28;;;13.50;99.90;;;;;;5022184;28;20461;-75
2022/08/02 03:07:22;;;;;;;12.30;5.97;;;13.50;99.90;;;;;;5020043;28;20770;-75
2022/08/02 03:10:07;;;;;;;10.95;5.85;;;13.40;99.90;;;;;;5022725;28;20426;-74
2022/08/02 03:12:53;;;;;;;10.43;5.97;;;13.40;99.90;;;;;;5026040;28;20450;-74
2022/08/02 03:15:38;;;;;;;11.27;6.10;;;13.40;99.90;;;;;;5022748;28;20462;-75
2022/08/02 03:18:38;;;;;;;9.10;6.35;;;13.40;99.90;;;;;;5024016;28;20413;-75
2022/08/02 03:21:23;;;;;;;9.20;6.00;;;13.30;99.90;;;;;;5025252;28;20418;-75
2022/08/02 03:24:07;;;;;;;10.57;5.90;;;13.30;99.90;;;;;;5025124;28;20484;-75
2022/08/02 03:26:52;;;;;;;7.53;5.80;;;13.20;99.90;;;;;;5018497;28;20419;-75
2022/08/02 03:29:36;;;;;;;9.40;6.20;;;13.30;99.90;;;;;;5023231;28;20426;-75
2022/08/02 03:32:20;;;;;;;9.10;5.85;;;13.20;99.90;;;;;;5022247;28;20409;-75
2022/08/02 03:35:06;;;;;;;7.75;5.90;;;13.20;99.90;;;;;;5023284;28;20426;-75
2022/08/02 03:37:54;;;;;;;9.45;5.90;;;13.20;99.90;;;;;;5021629;28;20439;-75
2022/08/02 03:40:41;;;;;;;9.60;5.95;;;13.20;99.90;;;;;;5022853;28;20437;-75
2022/08/02 03:43:27;;;;;;;9.95;6.00;;;13.10;99.90;;;;;;5026128;28;20485;-75
2022/08/02 03:46:13;;;;;;;9.75;5.72;;;13.10;99.90;;;;;;5025059;28;20504;-75
2022/08/02 03:48:58;;;;;;;8.48;6.00;;;13.10;99.90;;;;;;5014952;28;20423;-75
2022/08/02 03:51:44;;;;;;;10.55;6.35;;;13.10;99.90;;;;;;5025904;28;20494;-75
2022/08/02 03:54:28;;;;;;;10.68;6.10;;;13.00;99.90;;;;;;5023001;28;20410;-75
2022/08/02 03:57:12;;;;;;;10.73;6.63;;;13.00;99.90;;;;;;5023025;28;20405;-75
2022/08/02 03:59:57;;;;;;;10.48;6.30;;;13.00;99.90;;;;;;5023849;28;20501;-75
2022/08/02 04:02:41;;;;;;;8.95;6.05;;;12.90;99.90;;;;;;5022778;28;20423;-75
2022/08/02 04:05:25;;;;;;;10.70;6.40;;;12.90;99.90;;;;;;5026823;28;20452;-75
2022/08/02 04:08:10;;;;;;;9.25;5.90;;;12.90;99.90;;;;;;5030616;28;20421;-75
2022/08/02 04:14:06;;;;;;;9.43;6.38;;;12.90;99.90;;;;;;5030486;28;20426;-75
2022/08/02 04:17:00;;;;;;;8.82;5.93;;;12.90;99.90;;;;;;5021611;28;20782;-75
2022/08/02 04:19:56;;;;;;;9.18;6.38;;;12.90;99.90;;;;;;5022915;28;20445;-75
2022/08/02 04:22:53;;;;;;;7.82;6.10;;;12.90;99.90;;;;;;5024958;28;20704;-75
2022/08/02 04:25:40;;;;;;;8.85;6.22;;;12.90;99.90;;;;;;5023125;28;20610;-75
2022/08/02 04:28:25;;;;;;;9.55;5.47;;;12.90;99.90;;;;;;5020998;28;20545;-75
2022/08/02 04:31:10;;;;;;;8.27;5.70;;;12.90;99.90;;;;;;5026152;28;20414;-75
2022/08/02 04:33:55;;;;;;;8.10;5.70;;;12.90;99.90;;;;;;5024433;28;20435;-75
2022/08/02 04:36:39;;;;;;;11.02;5.68;;;12.80;99.90;;;;;;5027579;28;20486;-75
2022/08/02 04:39:24;;;;;;;10.43;5.88;;;12.90;99.90;;;;;;5021654;28;20414;-75
2022/08/02 04:42:08;;;;;;;9.65;5.47;;;12.80;99.90;;;;;;5021887;28;20449;-75
2022/08/02 04:44:53;;;;;;;12.00;5.55;;;12.90;99.90;;;;;;5022568;28;20409;-75
2022/08/02 04:47:38;;;;;;;8.65;5.40;;;12.90;99.90;;;;;;5021717;28;20410;-75
2022/08/02 04:50:22;;;;;;;10.17;5.30;;;12.90;99.90;;;;;;5018933;28;21004;-75
2022/08/02 04:53:06;;;;;;;9.03;5.57;;;12.90;99.90;;;;;;5015684;28;20402;-75
2022/08/02 04:55:50;;;;;;;9.32;5.50;;;12.90;99.90;;;;;;5023637;28;20410;-75
2022/08/02 04:58:34;;;;;;;11.90;6.45;;;12.90;99.90;;;;;;5022662;28;20418;-75
2022/08/02 05:01:18;;;;;;;10.18;5.57;;;12.90;99.90;;;;;;5022061;28;20410;-75
2022/08/02 05:04:03;;;;;;;11.40;6.55;;;12.90;99.90;;;;;;5025762;28;20411;-75
2022/08/02 05:06:47;;;;;;;14.55;6.93;;;13.00;99.90;;;;;;5023201;28;20433;-74
2022/08/02 05:09:31;;;;;;;10.77;6.20;;;12.90;99.90;;;;;;5020272;28;20451;-75
2022/08/02 05:12:15;;;;;;;11.15;6.40;;;12.90;99.90;;;;;;5021644;28;20975;-75
2022/08/02 05:14:59;;;;;;;13.98;6.53;;;13.00;99.90;;;;;;5025671;28;20939;-75
2022/08/02 05:17:44;;;;;;;9.55;6.00;;;13.00;99.90;;;;;;5024671;28;20476;-75
2022/08/02 05:20:28;;;;;;;12.35;6.35;;;13.10;99.90;;;;;;5019875;28;20505;-74
2022/08/02 05:23:12;;;;;;;14.43;6.43;;;13.20;99.90;;;;;;5022079;28;20413;-75
2022/08/02 05:25:57;;;;;;;13.02;6.43;;;13.20;99.90;;;;;;5026017;28;20461;-75
2022/08/02 05:28:41;;;;;;;10.38;6.32;;;13.30;99.90;;;;;;5025937;28;20524;-75
2022/08/02 05:31:25;;;;;;;12.37;5.93;;;13.40;99.90;;;;;;5019623;28;20413;-75
2022/08/02 05:34:09;;;;;;;16.48;6.55;;;13.40;99.90;;;;;;5026948;28;20410;-75
2022/08/02 05:36:53;;;;;;;11.32;6.20;;;13.40;99.90;;;;;;5022755;28;20414;-75
2022/08/02 05:39:37;;;;;;;12.37;6.00;;;13.40;99.90;;;;;;5027624;28;20453;-75
2022/08/02 05:42:21;;;;;;;13.67;5.93;;;13.50;99.90;;;;;;5026592;28;20857;-75
2022/08/02 05:45:07;;;;;;;12.82;5.82;;;13.60;99.90;;;;;;5022215;28;20511;-75
2022/08/02 05:47:51;;;;;;;11.30;5.82;;;13.60;99.90;;;;;;5027392;28;20433;-75
2022/08/02 05:50:43;;;;;;;13.23;5.80;;;13.70;99.90;;;;;;5022484;28;20406;-78
2022/08/02 05:53:38;;;;;;;11.45;5.60;;;13.70;99.90;;;;;;5020825;28;20557;-76
2022/08/02 05:56:50;;;;;;;9.93;5.03;;;13.80;99.90;;;;;;5023564;28;20506;-76
2022/08/02 05:59:55;;;;;;;10.82;5.38;;;13.80;99.90;;;;;;5025987;28;20457;-76
2022/08/02 06:02:42;;;;;;;10.93;5.50;;;13.90;99.90;;;;;;5028445;28;20481;-76
2022/08/02 06:05:31;;;;;;;11.83;5.07;;;14.00;99.90;;;;;;5024013;28;20500;-76
2022/08/02 06:08:15;;;;;;;9.02;4.97;;;14.00;99.90;;;;;;5025786;28;20489;-76
2022/08/02 06:11:03;;;;;;;9.60;5.13;;;14.10;99.90;;;;;;5027327;28;20431;-76
2022/08/02 06:13:48;;;;;;;10.23;5.13;;;14.20;99.90;;;;;;5024272;28;20410;-76
2022/08/02 06:16:34;;;;;;;11.33;5.10;;;14.20;99.90;;;;;;5022825;28;20513;-77
2022/08/02 06:19:19;;;;;;;9.75;4.78;;;14.30;99.90;;;;;;5027153;28;20968;-76
2022/08/02 06:22:16;;;;;;;11.07;4.72;;;14.50;99.90;;;;;;5020957;28;20515;-76
2022/08/02 06:25:02;;;;;;;10.77;4.25;;;14.50;99.90;;;;;;5020105;28;20427;-76
2022/08/02 06:27:48;;;;;;;12.48;5.10;;;14.70;99.90;;;;;;5025591;28;20436;-77
2022/08/02 06:30:33;;;;;;;11.20;4.63;;;14.70;99.90;;;;;;5023076;28;20469;-75
2022/08/02 06:33:17;;;;;;;10.98;4.75;;;14.80;99.90;;;;;;5020219;28;20763;-74
2022/08/02 06:36:13;;;;;;;8.67;4.33;;;14.90;99.90;;;;;;5027633;28;20421;-74
2022/08/02 06:39:07;;;;;;;8.65;4.43;;;15.00;99.90;;;;;;5023782;28;20417;-74
2022/08/02 06:41:57;;;;;;;9.63;5.07;;;15.00;99.90;;;;;;5025682;28;20414;-74
2022/08/02 06:44:41;;;;;;;9.63;4.35;;;15.20;99.90;;;;;;5015590;28;20427;-74
2022/08/02 06:47:26;;;;;;;8.70;4.70;;;15.30;99.90;;;;;;5025897;28;20460;-75
2022/08/02 06:50:11;;;;;;;10.47;4.63;;;15.30;99.90;;;;;;5028917;28;20441;-75
2022/08/02 06:52:55;;;;;;;9.13;4.53;;;15.40;99.90;;;;;;5018279;28;20406;-75
2022/08/02 06:55:40;;;;;;;11.43;4.88;;;15.50;99.90;;;;;;5026202;28;20486;-75
2022/08/02 06:58:24;;;;;;;10.07;4.82;;;15.60;99.90;;;;;;5028386;28;20544;-75
2022/08/02 07:01:08;;;;;;;9.98;4.80;;;15.70;99.90;;;;;;5017033;28;20471;-75
2022/08/02 07:03:52;;;;;;;14.73;5.90;;;15.90;99.90;;;;;;5024376;28;20429;-75
2022/08/02 07:06:37;;;;;;;16.25;7.90;;;16.00;99.90;;;;;;5020536;28;20466;-75
2022/08/02 07:09:21;;;;;;;16.75;7.28;;;16.20;99.90;;;;;;5022805;28;20480;-74
2022/08/02 07:12:05;;;;;;;12.63;5.78;;;16.30;99.90;;;;;;5020175;28;20480;-76
2022/08/02 07:14:49;;;;;;;12.25;5.13;;;16.50;99.90;;;;;;5022354;28;20912;-78
2022/08/02 07:17:34;;;;;;;13.52;6.03;;;16.60;99.90;;;;;;5019528;28;20513;-78
2022/08/02 07:20:18;;;;;;;15.50;5.53;;;16.70;99.90;;;;;;5020838;28;20589;-78
2022/08/02 07:23:03;;;;;;;10.27;4.90;;;16.80;99.90;;;;;;5022648;28;20406;-78
2022/08/02 07:25:48;;;;;;;10.00;4.20;;;17.00;99.90;;;;;;5019327;28;20436;-78
2022/08/02 07:28:32;;;;;;;13.23;4.50;;;17.00;99.90;;;;;;5024028;28;20787;-77
2022/08/02 07:31:16;;;;;;;9.57;4.28;;;17.10;99.90;;;;;;5024420;28;20506;-77
2022/08/02 07:34:00;;;;;;;11.77;4.70;;;17.30;99.90;;;;;;5019145;28;20809;-77
2022/08/02 07:36:44;;;;;;;11.07;4.20;;;17.40;99.90;;;;;;5027181;28;20472;-78
2022/08/02 07:39:28;;;;;;;14.30;6.07;;;17.60;99.90;;;;;;5028725;28;20426;-79
2022/08/02 07:42:13;;;;;;;12.93;4.80;;;17.70;99.90;;;;;;5019782;28;20984;-78
2022/08/02 07:44:57;;;;;;;12.40;4.70;;;17.70;99.90;;;;;;5026122;28;20913;-79
2022/08/02 07:47:42;;;;;;;13.53;4.90;;;17.80;99.90;;;;;;5024416;28;20511;-78
2022/08/02 07:50:27;;;;;;;11.90;3.60;;;17.90;99.90;;;;;;5028892;28;20960;-78
2022/08/02 07:53:11;;;;;;;9.70;3.80;;;18.10;99.90;;;;;;5025933;28;20448;-79
2022/08/02 07:55:55;;;;;;;13.07;4.15;;;18.20;99.90;;;;;;5019922;28;20951;-78
2022/08/02 07:58:41;;;;;;;10.63;3.70;;;18.30;99.90;;;;;;5021191;28;20417;-76
2022/08/02 08:01:25;;;;;;;9.70;3.93;;;18.40;99.90;;;;;;5021886;28;20420;-75
2022/08/02 08:04:09;;;;;;;10.38;4.10;;;18.50;99.90;;;;;;5026039;28;20893;-75
2022/08/02 08:06:54;;;;;;;10.93;3.75;;;18.60;99.90;;;;;;5027422;28;20414;-75
2022/08/02 08:09:40;;;;;;;9.02;3.90;;;18.70;99.90;;;;;;5027211;28;20426;-75
2022/08/02 08:12:25;;;;;;;11.25;3.80;;;18.80;99.90;;;;;;5020583;28;20464;-77
2022/08/02 08:15:09;;;;;;;10.45;3.40;;;18.90;99.90;;;;;;5028872;28;20428;-74
2022/08/02 08:17:54;;;;;;;8.85;3.33;;;19.00;99.90;;;;;;5022977;28;20413;-74
2022/08/02 08:20:37;;;;;;;9.40;3.83;;;19.10;99.90;;;;;;5026797;28;20414;-74
2022/08/02 08:23:22;;;;;;;8.77;3.40;;;19.30;99.90;;;;;;5018431;28;20476;-74
2022/08/02 08:26:06;;;;;;;11.05;3.78;;;19.30;99.90;;;;;;5030082;28;20560;-76
2022/08/02 08:28:51;;;;;;;8.90;3.20;;;19.40;99.90;;;;;;5023830;28;20226;-76
2022/08/02 08:31:35;;;;;;;10.30;3.83;;;19.50;99.90;;;;;;5023359;28;20453;-76
2022/08/02 08:34:19;;;;;;;7.88;3.17;;;19.60;99.90;;;;;;5028176;28;20418;-75
2022/08/02 08:37:03;;;;;;;6.63;2.70;;;19.70;99.90;;;;;;5027274;28;20449;-75
2022/08/02 08:39:48;;;;;;;5.43;2.57;;;19.80;99.90;;;;;;5022698;28;20494;-75
2022/08/02 08:42:32;;;;;;;9.70;2.40;;;20.00;99.90;;;;;;5027304;28;20218;-75
2022/08/02 08:45:17;;;;;;;4.22;1.85;;;20.00;99.90;;;;;;5026930;28;20192;-75
2022/08/02 08:48:12;;;;;;;11.93;2.40;;;20.10;99.90;;;;;;5028602;28;20254;-75
2022/08/02 08:51:02;;;;;;;2.90;1.50;;;20.20;99.90;;;;;;5027091;28;20191;-75
2022/08/02 08:53:48;;;;;;;4.30;1.65;;;20.30;99.90;;;;;;5027116;28;20188;-78
2022/08/02 08:56:34;;;;;;;3.08;1.40;;;20.30;99.90;;;;;;5029029;28;20195;-75
2022/08/02 08:59:18;;;;;;;3.67;1.77;;;20.40;99.90;;;;;;5019230;28;20306;-78
2022/08/02 09:02:03;;;;;;;4.70;1.58;;;20.50;99.90;;;;;;5022900;28;20200;-74
2022/08/02 09:04:48;;;;;;;5.80;1.80;;;20.60;99.90;;;;;;5013036;28;20231;-75
2022/08/02 09:07:32;;;;;;;4.72;1.17;;;20.60;99.90;;;;;;5027061;28;20206;-75
2022/08/02 09:10:33;;;;;;;3.28;1.30;;;20.70;99.90;;;;;;5029014;28;20759;-75
2022/08/02 09:13:28;;;;;;;2.13;1.20;;;20.80;99.90;;;;;;5027663;28;20270;-75
2022/08/02 09:16:12;;;;;;;6.22;1.30;;;20.90;99.90;;;;;;5024524;28;20215;-75
2022/08/02 09:18:58;;;;;;;4.95;1.52;;;21.00;99.90;;;;;;5019272;28;20308;-75
2022/08/02 09:21:42;;;;;;;6.30;1.30;;;21.10;99.90;;;;;;5022375;28;20234;-75
2022/08/02 09:24:26;;;;;;;4.68;1.10;;;21.20;99.90;;;;;;5024176;28;20555;-75
2022/08/02 09:27:15;;;;;;;3.08;0.93;;;21.30;99.90;;;;;;5022673;28;20219;-75
2022/08/02 09:30:00;;;;;;;2.97;1.27;;;21.30;99.90;;;;;;5023907;28;20274;-79
2022/08/02 09:32:46;;;;;;;1.80;1.02;;;21.40;99.90;;;;;;5022347;28;20250;-75
2022/08/02 09:35:41;;;;;;;2.88;1.30;;;21.40;99.90;;;;;;5024223;28;20916;-75
2022/08/02 09:38:25;;;;;;;5.03;1.50;;;21.50;99.90;;;;;;5025500;28;20234;-75
2022/08/02 09:41:25;;;;;;;4.60;1.40;;;21.60;99.90;;;;;;5028016;28;20311;-75
2022/08/02 09:44:11;;;;;;;3.60;1.48;;;21.70;99.90;;;;;;5025493;28;20191;-74
2022/08/02 09:46:55;;;;;;;4.95;1.80;;;21.70;99.90;;;;;;5020256;28;20290;-77
2022/08/02 09:49:46;;;;;;;5.28;1.40;;;21.80;99.90;;;;;;5022617;28;20635;-75
2022/08/02 09:52:31;;;;;;;5.30;1.80;;;21.90;99.90;;;;;;5021032;28;20190;-75
2022/08/02 09:55:15;;;;;;;9.10;1.70;;;22.00;99.90;;;;;;5026451;28;20230;-76
2022/08/02 09:58:18;;;;;;;6.05;1.50;;;22.00;99.90;;;;;;5021672;28;20203;-77
2022/08/02 10:01:02;;;;;;;3.97;2.08;;;22.10;99.90;;;;;;5020593;28;20265;-77
2022/08/02 10:03:55;;;;;;;4.50;1.80;;;22.20;99.90;;;;;;5026177;28;20183;-77
2022/08/02 10:06:41;;;;;;;5.53;2.08;;;22.30;99.90;;;;;;5022210;28;20192;-76
2022/08/02 10:09:27;;;;;;;4.70;1.60;;;22.30;99.90;;;;;;5025758;28;20274;-77
2022/08/02 10:12:12;;;;;;;4.05;1.30;;;22.40;99.90;;;;;;5028074;28;20242;-77
2022/08/02 10:14:58;;;;;;;4.00;1.85;;;22.50;99.90;;;;;;5024458;28;20196;-76
2022/08/02 10:17:43;;;;;;;7.97;1.98;;;22.50;99.90;;;;;;5028480;28;20238;-76
2022/08/02 10:20:29;;;;;;;5.10;1.85;;;22.60;99.90;;;;;;5020062;28;20200;-76
2022/08/02 10:23:15;;;;;;;3.42;1.90;;;22.70;99.90;;;;;;5024025;28;20601;-79
2022/08/02 10:26:02;;;;;;;9.32;2.00;;;22.80;99.90;;;;;;5022174;28;20335;-78
2022/08/02 10:28:48;;;;;;;5.65;2.30;;;22.90;99.90;;;;;;5020454;28;20227;-78
2022/08/02 10:31:53;;;;;;;5.68;1.83;;;23.00;99.90;;;;;;5025873;28;20301;-78
2022/08/02 10:35:01;;;;;;;5.80;1.77;;;23.00;99.90;;;;;;5024435;28;20245;-79
2022/08/02 10:37:49;;;;;;;4.25;1.48;;;23.10;99.90;;;;;;5019994;28;20239;-78
2022/08/02 10:40:44;;;;;;;4.50;1.52;;;23.20;99.90;;;;;;5023138;28;20214;-79
2022/08/02 10:43:34;;;;;;;4.03;1.48;;;23.30;99.90;;;;;;5020175;28;20203;-78
2022/08/02 10:46:33;;;;;;;3.58;1.42;;;23.40;99.90;;;;;;5026141;28;20191;-79
2022/08/02 10:49:20;;;;;;;3.80;1.40;;;23.50;99.90;;;;;;5019789;28;20228;-79
2022/08/02 10:52:07;;;;;;;6.00;1.60;;;23.60;99.90;;;;;;5027939;28;20491;-79
2022/08/02 10:55:02;;;;;;;3.75;1.60;;;23.70;99.90;;;;;;5024245;28;20398;-78
2022/08/02 10:57:56;;;;;;;4.50;1.70;;;23.80;99.90;;;;;;5017604;28;20566;-79
2022/08/02 11:00:41;;;;;;;2.85;1.48;;;23.90;99.90;;;;;;5028418;28;20554;-78
2022/08/02 11:03:38;;;;;;;2.92;1.42;;;23.90;99.90;;;;;;5029245;28;20183;-79
2022/08/02 11:06:22;;;;;;;5.05;1.70;;;24.00;99.90;;;;;;5024789;28;20273;-79
2022/08/02 11:09:26;;;;;;;4.32;1.60;;;24.10;99.90;;;;;;5019971;28;20231;-79
2022/08/02 11:12:15;;;;;;;4.15;1.65;;;24.20;99.90;;;;;;5033040;28;20197;-79
2022/08/02 11:15:03;;;;;;;5.32;1.30;;;24.30;99.90;;;;;;5022953;28;20187;-79
2022/08/02 11:17:53;;;;;;;2.38;1.33;;;24.30;99.90;;;;;;5029363;28;20179;-79
2022/08/02 11:20:37;;;;;;;3.33;1.33;;;24.40;99.90;;;;;;5025413;28;20198;-79
2022/08/02 11:23:39;;;;;;;2.42;1.30;;;24.50;99.90;;;;;;5030283;28;20250;-78
2022/08/02 11:26:29;;;;;;;3.35;1.30;;;24.60;99.90;;;;;;5029202;28;20190;-78
2022/08/02 11:29:14;;;;;;;3.22;1.42;;;24.70;99.90;;;;;;5033496;28;20265;-78
2022/08/02 11:31:59;;;;;;;4.50;1.60;;;24.80;99.90;;;;;;5032065;28;20186;-79
2022/08/02 11:34:46;;;;;;;2.10;1.48;;;24.80;99.90;;;;;;5030085;28;20195;-77
2022/08/02 11:37:35;;;;;;;2.65;1.52;;;24.80;99.90;;;;;;5034405;28;20271;-77
2022/08/02 11:40:20;;;;;;;2.25;1.45;;;24.90;99.90;;;;;;5031865;28;20222;-79
2022/08/02 11:43:18;;;;;;;2.08;1.88;;;25.00;99.90;;;;;;5031491;28;20275;-77
2022/08/02 11:46:04;;;;;;;7.28;1.60;;;25.10;99.90;;;;;;5032659;28;20241;-80
2022/08/02 11:48:48;;;;;;;4.05;1.63;;;25.10;99.90;;;;;;5027647;28;20259;-78
2022/08/02 11:51:32;;;;;;;3.92;1.67;;;25.10;99.90;;;;;;5030122;28;20676;-78
2022/08/02 11:54:30;;;;;;;2.50;1.45;;;25.20;99.90;;;;;;5025902;28;20199;-78
2022/08/02 11:57:19;;;;;;;2.70;1.30;;;25.10;99.90;;;;;;5028351;28;20265;-78
2022/08/02 12:00:15;;;;;;;1.95;1.50;;;25.10;99.90;;;;;;5031080;28;20215;-78
2022/08/02 12:03:00;;;;;;;2.75;1.60;;;25.20;99.90;;;;;;5032765;28;20567;-78
2022/08/02 12:05:48;;;;;;;3.65;1.52;;;25.20;99.90;;;;;;5027188;28;20195;-78
2022/08/02 12:08:35;;;;;;;4.40;1.60;;;25.30;99.90;;;;;;5031346;28;20362;-78
2022/08/02 12:11:19;;;;;;;3.55;1.65;;;25.40;99.90;;;;;;5029545;28;20204;-79
2022/08/02 12:14:05;;;;;;;1.80;1.35;;;25.50;99.90;;;;;;5030310;28;20664;-78
2022/08/02 12:19:53;;;;;;;8.57;2.13;;;25.60;99.90;;;;;;5031358;28;20298;-78
2022/08/02 12:22:38;;;;;;;4.13;1.80;;;25.70;99.90;;;;;;5027123;28;20505;-78
2022/08/02 12:25:23;;;;;;;3.17;1.75;;;25.80;99.90;;;;;;5026833;28;20484;-78
2022/08/02 12:28:21;;;;;;;3.77;1.80;;;25.90;99.90;;;;;;5026043;28;20774;-77
2022/08/02 12:31:09;;;;;;;4.35;1.80;;;25.90;99.90;;;;;;5027594;28;20401;-78
2022/08/02 12:33:53;;;;;;;4.82;1.70;;;26.00;99.90;;;;;;5023833;28;20406;-78
2022/08/02 12:36:38;;;;;;;4.03;1.80;;;26.10;99.90;;;;;;5031023;28;20496;-78
2022/08/02 12:39:37;;;;;;;3.43;1.87;;;26.20;99.90;;;;;;5029033;28;20538;-79
2022/08/02 12:42:21;;;;;;;5.28;2.05;;;26.30;99.90;;;;;;5025659;28;20464;-77
2022/08/02 12:45:06;;;;;;;3.33;1.83;;;26.20;99.90;;;;;;5027578;28;20442;-79
2022/08/02 12:47:53;;;;;;;4.55;2.33;;;26.20;99.90;;;;;;5028052;28;20410;-79
2022/08/02 12:50:37;;;;;;;5.47;1.70;;;26.20;99.90;;;;;;5026921;28;21026;-78
2022/08/02 12:53:31;;;;;;;2.97;1.83;;;26.30;99.90;;;;;;5027669;28;20773;-78
2022/08/02 12:56:35;;;;;;;5.03;1.80;;;26.30;99.90;;;;;;5028091;28;20442;-78
2022/08/02 12:59:37;;;;;;;3.65;1.83;;;26.30;99.90;;;;;;5022337;28;20496;-78
2022/08/02 13:02:21;;;;;;;2.50;1.80;;;26.30;99.90;;;;;;5024657;28;20419;-78
2022/08/02 13:05:05;;;;;;;5.22;1.60;;;26.30;99.90;;;;;;5025499;28;20418;-79
2022/08/02 13:07:51;;;;;;;3.17;1.73;;;26.30;99.90;;;;;;5026628;28;20491;-78
2022/08/02 13:10:35;;;;;;;3.35;1.67;;;26.40;99.90;;;;;;5019978;28;20460;-78
2022/08/02 13:13:19;;;;;;;3.22;1.75;;;26.50;99.90;;;;;;5023187;28;20410;-76
2022/08/02 13:16:04;;;;;;;5.75;1.90;;;26.70;99.90;;;;;;5028914;28;20261;-77
2022/08/02 13:18:49;;;;;;;4.47;2.10;;;26.70;99.90;;;;;;5023335;28;20414;-76
2022/08/02 13:21:33;;;;;;;4.05;1.95;;;26.70;99.90;;;;;;5022272;28;20215;-76
2022/08/02 13:24:17;;;;;;;3.13;1.98;;;26.70;99.90;;;;;;5028682;28;20654;-76
2022/08/02 13:27:02;;;;;;;4.18;1.90;;;26.70;99.90;;;;;;5019299;28;20454;-76
2022/08/02 13:29:47;;;;;;;4.60;2.03;;;26.70;99.90;;;;;;5025213;28;20266;-76
2022/08/02 13:32:32;;;;;;;3.50;2.15;;;26.60;99.90;;;;;;5024489;28;20327;-77
2022/08/02 13:35:16;;;;;;;3.78;2.08;;;26.70;99.90;;;;;;5030565;28;20187;-77
2022/08/02 13:38:03;;;;;;;4.70;2.05;;;26.70;99.90;;;;;;5022929;28;20190;-76
2022/08/02 13:43:50;;;;;;;4.88;2.30;;;26.70;99.90;;;;;;5027439;28;20195;-76
2022/08/02 13:46:35;;;;;;;5.65;2.15;;;26.80;99.90;;;;;;5023230;28;20207;-76
2022/08/02 13:49:19;;;;;;;6.60;2.00;;;26.90;99.90;;;;;;5023619;28;20226;-76
2022/08/02 13:52:04;;;;;;;5.38;2.50;;;26.90;99.90;;;;;;5026760;28;20230;-77
2022/08/02 13:54:49;;;;;;;3.00;2.33;;;27.00;99.90;;;;;;5022253;28;20318;-77
2022/08/02 13:57:33;;;;;;;6.97;2.20;;;26.90;99.90;;;;;;5023591;28;20347;-77
2022/08/02 14:00:17;;;;;;;3.33;2.28;;;26.90;99.90;;;;;;5017335;28;20215;-77
2022/08/02 14:03:01;;;;;;;6.18;2.20;;;26.90;99.90;;;;;;5028718;28;20191;-77
2022/08/02 14:05:46;;;;;;;3.17;2.20;;;26.90;99.90;;;;;;5024851;28;20219;-77
2022/08/02 14:08:30;;;;;;;3.72;2.20;;;27.00;99.90;;;;;;5022166;28;20277;-77
2022/08/02 14:11:14;;;;;;;2.90;2.28;;;27.00;99.90;;;;;;5018989;28;20395;-77
2022/08/02 14:13:58;;;;;;;3.22;2.22;;;27.10;99.90;;;;;;5025142;28;20203;-78
2022/08/02 14:16:43;;;;;;;3.60;2.15;;;27.10;99.90;;;;;;5030312;28;20278;-80
2022/08/02 14:19:27;;;;;;;3.92;2.38;;;27.20;99.90;;;;;;5024633;28;20322;-80
2022/08/02 14:22:11;;;;;;;5.13;2.40;;;27.20;99.90;;;;;;5025747;28;20207;-78
2022/08/02 14:24:55;;;;;;;3.53;2.20;;;27.20;99.90;;;;;;5030853;28;20204;-78
2022/08/02 14:27:39;;;;;;;2.42;2.10;;;27.10;99.90;;;;;;5027365;28;20274;-78
2022/08/02 14:30:23;;;;;;;3.85;2.10;;;27.20;99.90;;;;;;5024489;28;20986;-78
2022/08/02 14:33:08;;;;;;;3.60;2.00;;;27.30;99.90;;;;;;5026808;28;20330;-78